createdAt,value
2023-01-30T00:02:12.766Z,69.29
2023-01-30T00:04:43.055Z,69.34
2023-01-30T00:07:11.550Z,69.41
2023-01-30T00:09:44.128Z,69.31
2023-01-30T00:12:14.414Z,69.39
2023-01-30T00:14:43.092Z,69.64
2023-01-30T00:17:11.389Z,69.51
2023-01-30T00:19:42.430Z,69.71
2023-01-30T00:22:10.408Z,69.80
2023-01-30T00:24:44.170Z,69.42
2023-01-30T00:27:12.361Z,69.55
2023-01-30T00:29:40.660Z,69.29
2023-01-30T00:32:13.597Z,68.87
2023-01-30T00:34:41.761Z,68.71
2023-01-30T00:37:09.976Z,68.77
2023-01-30T00:39:37.990Z,68.73
2023-01-30T00:42:24.684Z,68.72
2023-01-30T00:45:12.857Z,69.01
2023-01-30T00:47:41.596Z,68.90
2023-01-30T00:50:10.116Z,69.00
2023-01-30T00:52:38.875Z,69.09
2023-01-30T00:55:07.816Z,69.06
2023-01-30T00:57:35.837Z,69.21
2023-01-30T01:00:05.595Z,69.31
2023-01-30T01:02:33.840Z,69.49
2023-01-30T01:05:02.034Z,69.55
2023-01-30T01:07:31.060Z,69.69
2023-01-30T01:10:00.625Z,69.82
2023-01-30T01:12:28.824Z,69.97
2023-01-30T01:14:57.262Z,70.08
2023-01-30T01:17:25.668Z,70.22
2023-01-30T01:19:53.810Z,70.40
2023-01-30T01:22:21.985Z,70.28
2023-01-30T01:24:50.070Z,70.34
2023-01-30T01:27:19.634Z,70.37
2023-01-30T01:29:47.560Z,70.44
2023-01-30T01:32:17.158Z,70.61
2023-01-30T01:34:45.584Z,70.52
2023-01-30T01:37:13.850Z,70.32
2023-01-30T01:40:02.916Z,70.12
2023-01-30T01:42:34.467Z,69.95
2023-01-30T01:45:11.647Z,69.89
2023-01-30T01:47:53.723Z,69.78
2023-01-30T01:50:25.575Z,69.75
2023-01-30T04:02:45.883Z,76.03
2023-01-30T04:05:14.425Z,75.98
2023-01-30T04:07:44.277Z,76.12
2023-01-30T04:10:14.664Z,76.22
2023-01-30T04:12:42.420Z,76.04
2023-01-30T04:15:10.197Z,75.85
2023-01-30T04:17:55.032Z,75.68
2023-01-30T04:20:42.591Z,75.56
2023-01-30T04:23:10.262Z,75.51
2023-01-30T04:25:37.043Z,75.56
2023-01-30T04:28:07.429Z,75.28
2023-01-30T04:30:36.979Z,75.38
2023-01-30T04:33:39.526Z,75.25
2023-01-30T04:36:08.218Z,75.34
2023-01-30T04:38:35.507Z,75.47
2023-01-30T04:41:04.216Z,75.50
2023-01-30T04:43:32.297Z,75.56
2023-01-30T04:46:21.860Z,75.73
2023-01-30T04:48:49.159Z,75.56
2023-01-30T04:51:16.087Z,75.89
2023-01-30T04:53:43.116Z,75.78
2023-01-30T04:56:10.943Z,75.77
2023-01-30T04:58:38.049Z,75.65
2023-01-30T05:01:24.868Z,75.77
2023-01-30T05:03:55.214Z,75.58
2023-01-30T05:06:22.621Z,75.66
2023-01-30T05:08:52.669Z,75.96
2023-01-30T05:11:19.789Z,76.17
2023-01-30T05:13:46.777Z,76.41
2023-01-30T05:16:14.401Z,76.61
2023-01-30T05:18:41.640Z,77.02
2023-01-30T05:21:13.624Z,77.28
2023-01-30T05:23:41.169Z,77.77
2023-01-30T05:26:07.885Z,77.82
2023-01-30T05:28:35.053Z,78.14
2023-01-30T05:31:07.511Z,78.33
2023-01-30T05:33:34.355Z,78.29
2023-01-30T05:36:01.720Z,78.40
2023-01-30T05:38:29.234Z,78.46
2023-01-30T05:41:00.588Z,78.52
2023-01-30T05:43:27.405Z,78.58
2023-01-30T05:45:56.597Z,78.82
2023-01-30T05:48:23.389Z,78.74
2023-01-30T05:50:54.795Z,79.04
2023-01-30T05:53:26.053Z,79.14
2023-01-30T05:55:57.192Z,79.29
2023-01-30T05:58:24.090Z,79.62
2023-01-30T06:00:50.768Z,79.72
2023-01-30T06:07:22.778Z,80.03
2023-01-30T06:09:51.248Z,80.09
2023-01-30T06:12:19.664Z,80.13
2023-01-30T06:14:46.351Z,80.16
2023-01-30T06:17:14.062Z,80.09
2023-01-30T06:19:41.200Z,80.13
2023-01-30T06:22:07.800Z,80.47
2023-01-30T06:24:34.463Z,80.24
2023-01-30T06:27:01.102Z,80.19
2023-01-30T06:29:30.151Z,80.12
2023-01-30T06:31:57.108Z,79.89
2023-01-30T06:34:23.722Z,79.99
2023-01-30T06:36:51.012Z,79.80
2023-01-30T06:39:18.659Z,79.66
2023-01-30T06:41:45.337Z,79.74
2023-01-30T06:44:12.332Z,79.61
2023-01-30T06:46:39.563Z,79.61
2023-01-30T06:49:06.440Z,79.75
2023-01-30T06:51:33.220Z,79.97
2023-01-30T06:53:59.955Z,80.04
2023-01-30T06:56:27.351Z,79.95
2023-01-30T06:58:54.566Z,79.90
2023-01-30T07:01:21.269Z,80.14
2023-01-30T07:03:48.121Z,80.14
2023-01-30T07:06:14.810Z,80.07
2023-01-30T07:08:43.845Z,80.11
2023-01-30T07:11:10.456Z,80.19
2023-01-30T07:13:37.061Z,80.26
2023-01-30T07:16:03.903Z,80.56
2023-01-30T07:18:32.288Z,80.98
2023-01-30T07:20:59.059Z,81.04
2023-01-30T07:23:25.894Z,81.27
2023-01-30T07:25:52.680Z,81.35
2023-01-30T07:28:19.630Z,81.40
2023-01-30T07:30:47.267Z,81.47
2023-01-30T07:33:13.953Z,81.52
2023-01-30T07:35:40.626Z,81.46
2023-01-30T07:38:07.551Z,81.70
2023-01-30T07:40:34.225Z,81.77
2023-01-30T07:43:05.245Z,81.80
2023-01-30T07:45:39.673Z,82.04
2023-01-30T07:48:07.413Z,82.33
2023-01-30T07:50:37.231Z,82.46
2023-01-30T07:53:04.953Z,82.43
2023-01-30T07:55:31.928Z,82.34
2023-01-30T07:57:59.580Z,82.38
2023-01-30T08:00:26.700Z,82.37
2023-01-30T08:02:53.316Z,82.41
2023-01-30T08:05:19.968Z,82.38
2023-01-30T08:07:47.562Z,82.40
2023-01-30T08:10:17.584Z,82.63
2023-01-30T08:12:46.079Z,82.74
2023-01-30T08:15:13.383Z,82.99
2023-01-30T08:17:40.269Z,83.04
2023-01-30T08:20:08.274Z,83.13
2023-01-30T08:22:34.950Z,83.07
2023-01-30T08:25:01.954Z,83.06
2023-01-30T08:27:28.768Z,83.05
2023-01-30T08:29:56.587Z,83.12
2023-01-30T08:32:23.225Z,83.25
2023-01-30T08:34:51.251Z,83.27
2023-01-30T08:37:18.108Z,83.60
2023-01-30T08:39:45.088Z,83.46
2023-01-30T08:42:12.823Z,83.76
2023-01-30T08:44:39.716Z,83.70
2023-01-30T08:47:06.445Z,83.76
2023-01-30T08:49:36.623Z,83.63
2023-01-30T08:52:03.328Z,83.40
2023-01-30T08:54:31.807Z,83.27
2023-01-30T08:56:59.860Z,83.36
2023-01-30T08:59:28.257Z,83.42
2023-01-30T09:01:54.802Z,83.24
2023-01-30T09:04:24.267Z,83.09
2023-01-30T09:06:54.554Z,83.19
2023-01-30T09:09:21.151Z,83.03
2023-01-30T09:11:48.778Z,83.07
2023-01-30T09:14:19.195Z,82.93
2023-01-30T09:16:47.528Z,82.80
2023-01-30T09:19:14.124Z,82.79
2023-01-30T09:21:40.808Z,82.67
2023-01-30T09:24:07.666Z,82.68
2023-01-30T09:26:34.636Z,82.55
2023-01-30T09:29:01.453Z,82.43
2023-01-30T09:31:28.499Z,82.60
2023-01-30T09:33:55.320Z,82.49
2023-01-30T09:36:22.275Z,82.50
2023-01-30T09:38:48.893Z,82.21
2023-01-30T09:41:58.295Z,82.05
2023-01-30T09:45:02.021Z,80.84
2023-01-30T13:47:58.310Z,86.95
2023-01-30T13:50:35.021Z,86.83
2023-01-30T13:53:18.830Z,86.74
2023-01-30T13:55:48.515Z,86.52
2023-01-30T13:58:50.355Z,86.19
2023-01-30T14:01:19.443Z,86.01
2023-01-30T14:03:47.840Z,85.79
2023-01-30T14:06:31.671Z,85.68
2023-01-30T14:09:01.582Z,85.35
2023-01-30T14:11:36.543Z,85.44
2023-01-30T14:14:49.200Z,85.23
2023-01-30T14:17:18.112Z,85.14
2023-01-30T14:19:58.690Z,84.91
2023-01-30T14:22:47.255Z,84.34
2023-01-30T14:25:31.170Z,84.38
2023-01-30T14:28:05.786Z,84.38
2023-01-30T14:30:38.497Z,84.36
2023-01-30T14:33:21.877Z,84.36
2023-01-30T14:36:02.560Z,84.32
2023-01-30T14:38:32.179Z,84.27
2023-01-30T14:41:00.287Z,84.35
2023-01-30T14:43:38.453Z,84.23
2023-01-30T14:46:19.021Z,84.29
2023-01-30T14:49:04.683Z,84.36
2023-01-30T14:51:40.013Z,84.25
2023-01-30T14:54:13.691Z,83.91
2023-01-30T14:56:56.777Z,84.16
2023-01-30T14:59:30.924Z,84.21
2023-01-30T15:02:12.973Z,84.21
2023-01-30T15:05:06.807Z,84.12
2023-01-30T15:07:46.346Z,84.15
2023-01-30T15:10:25.669Z,83.99
2023-01-30T15:13:13.610Z,84.21
2023-01-30T15:15:54.056Z,84.29
2023-01-30T15:19:10.206Z,84.14
2023-01-30T15:22:10.349Z,84.19
2023-01-30T15:25:11.026Z,84.22
2023-01-30T15:27:42.120Z,84.05
2023-01-30T15:30:35.123Z,83.89
2023-01-30T15:33:29.777Z,84.28
2023-01-30T15:35:59.423Z,84.37
2023-01-30T15:38:34.238Z,84.30
2023-01-30T15:41:04.388Z,84.69
2023-01-30T15:44:05.962Z,84.71
2023-01-30T15:46:41.352Z,84.60
2023-01-30T15:49:36.715Z,84.53
2023-01-30T15:52:07.073Z,84.56
2023-01-30T15:54:35.934Z,84.70
2023-01-30T15:57:04.257Z,84.52
2023-01-30T15:59:38.507Z,84.75
2023-01-30T16:02:25.276Z,84.71
2023-01-30T16:05:07.385Z,84.60
2023-01-30T16:07:35.612Z,84.62
2023-01-30T16:10:10.734Z,84.51
2023-01-30T16:12:41.033Z,84.40
2023-01-30T16:15:20.068Z,84.32
2023-01-30T16:17:55.506Z,84.48
2023-01-30T16:20:23.940Z,84.39
2023-01-30T16:22:52.654Z,84.56
2023-01-30T16:25:23.313Z,84.33
2023-01-30T16:27:53.121Z,84.26
2023-01-30T16:30:23.768Z,84.07
2023-01-30T16:32:55.252Z,83.90
2023-01-30T16:35:26.899Z,83.73
2023-01-30T16:37:58.987Z,83.50
2023-01-30T16:40:33.304Z,83.43
2023-01-30T16:43:03.304Z,83.26
2023-01-30T16:45:34.512Z,83.45
2023-01-30T16:48:33.133Z,83.14
2023-01-30T16:51:04.864Z,83.02
2023-01-30T16:54:05.163Z,82.86
2023-01-30T16:56:33.852Z,82.71
2023-01-30T16:59:01.961Z,82.76
2023-01-30T17:01:38.597Z,82.57
2023-01-30T17:04:08.049Z,82.65
2023-01-30T17:06:40.301Z,82.71
2023-01-30T17:09:36.322Z,82.68
2023-01-30T17:12:38.423Z,82.55
2023-01-30T17:15:11.773Z,82.56
2023-01-30T17:17:40.925Z,82.27
2023-01-30T17:20:13.010Z,82.18
2023-01-30T17:22:40.987Z,82.07
2023-01-30T17:25:19.161Z,81.91
2023-01-30T17:27:47.599Z,82.01
2023-01-30T17:30:16.214Z,82.19
2023-01-30T17:32:44.216Z,82.27
2023-01-30T17:35:12.455Z,82.13
2023-01-30T17:37:42.182Z,82.14
2023-01-30T17:40:17.458Z,82.09
2023-01-30T17:42:49.016Z,82.20
2023-01-30T17:45:17.243Z,81.91
2023-01-30T17:47:45.494Z,82.02
2023-01-30T17:50:13.996Z,82.07
2023-01-30T17:52:46.288Z,82.12
2023-01-30T22:12:32.575Z,100.00
2023-01-30T22:15:01.585Z,100.00
2023-01-30T22:17:29.750Z,100.00
2023-01-30T22:19:58.435Z,100.00
2023-01-30T22:22:26.524Z,100.00
2023-01-30T22:24:54.907Z,100.00
2023-01-30T22:27:23.148Z,100.00
2023-01-30T22:29:51.923Z,100.00
2023-01-30T22:32:23.815Z,100.00
2023-01-30T22:34:52.574Z,100.00
2023-01-30T22:37:20.668Z,100.00
2023-01-30T22:39:49.432Z,100.00
2023-01-30T22:42:17.368Z,100.00
2023-01-30T22:44:45.892Z,100.00
2023-01-30T22:47:14.175Z,100.00
2023-01-30T22:49:45.312Z,100.00
2023-01-30T22:52:13.292Z,100.00
2023-01-30T22:54:41.541Z,100.00
2023-01-30T22:57:09.903Z,100.00
2023-01-30T22:59:38.206Z,100.00
2023-01-30T23:02:10.304Z,100.00
2023-01-30T23:04:39.105Z,100.00
2023-01-30T23:07:07.475Z,100.00
2023-01-30T23:09:35.676Z,100.00
2023-01-30T23:12:24.166Z,100.00
2023-01-30T23:14:52.463Z,100.00
2023-01-30T23:17:39.479Z,100.00
2023-01-30T23:20:08.692Z,100.00
2023-01-30T23:22:37.183Z,100.00
2023-01-30T23:25:05.312Z,100.00
2023-01-30T23:27:33.661Z,100.00
2023-01-30T23:30:01.647Z,100.00
2023-01-30T23:32:31.456Z,100.00
2023-01-30T23:34:59.399Z,100.00
2023-01-30T23:37:47.333Z,100.00
2023-01-30T23:40:15.619Z,100.00
2023-01-30T23:42:43.985Z,100.00
2023-01-30T23:45:12.318Z,100.00
2023-01-30T23:47:40.748Z,100.00
